createdAt,value
2018-05-18T00:00:01.394Z,1006.32
2018-05-18T00:01:01.418Z,1006.28
2018-05-18T00:02:01.433Z,1006.29
2018-05-18T00:03:01.461Z,1006.27
2018-05-18T00:04:01.485Z,1006.26
2018-05-18T00:05:01.498Z,1006.34
2018-05-18T00:06:01.512Z,1006.29
2018-05-18T00:07:01.538Z,1006.29
2018-05-18T00:08:01.555Z,1006.28
2018-05-18T00:09:01.571Z,1006.26
2018-05-18T00:10:01.597Z,1006.27
2018-05-18T00:11:01.615Z,1006.26
2018-05-18T00:12:01.630Z,1006.24
2018-05-18T00:13:01.650Z,1006.28
2018-05-18T00:14:01.672Z,1006.27
2018-05-18T00:15:01.698Z,1006.26
2018-05-18T00:16:01.712Z,1006.25
2018-05-18T00:17:01.730Z,1006.26
2018-05-18T00:18:01.750Z,1006.28
2018-05-18T00:19:01.772Z,1006.28
2018-05-18T00:20:01.795Z,1006.26
2018-05-18T00:21:01.812Z,1006.28
2018-05-18T00:22:01.832Z,1006.25
2018-05-18T00:23:01.851Z,1006.27
2018-05-18T00:24:01.870Z,1006.26
2018-05-18T00:25:01.887Z,1006.28
2018-05-18T00:26:01.906Z,1006.28
2018-05-18T00:27:01.929Z,1006.33
2018-05-18T00:28:01.949Z,1006.3
2018-05-18T00:29:01.971Z,1006.32
2018-05-18T00:30:01.990Z,1006.29
2018-05-18T00:31:02.003Z,1006.31
2018-05-18T00:32:02.027Z,1006.28
2018-05-18T00:33:02.047Z,1006.29
2018-05-18T00:34:02.062Z,1006.29
2018-05-18T00:35:02.088Z,1006.26
2018-05-18T00:36:02.115Z,1006.31
2018-05-18T00:37:02.128Z,1006.24
2018-05-18T00:38:02.144Z,1006.25
2018-05-18T00:39:02.165Z,1006.28
2018-05-18T00:40:02.259Z,1006.28
2018-05-18T00:41:02.204Z,1006.27
2018-05-18T00:42:02.218Z,1006.27
2018-05-18T00:43:02.237Z,1006.31
2018-05-18T00:44:02.260Z,1006.28
2018-05-18T00:45:02.281Z,1006.32
2018-05-18T00:46:02.298Z,1006.31
2018-05-18T00:47:02.320Z,1006.31
2018-05-18T00:48:02.335Z,1006.31
2018-05-18T00:49:02.353Z,1006.32
2018-05-18T00:50:02.375Z,1006.3
2018-05-18T00:51:02.398Z,1006.3
2018-05-18T00:52:02.412Z,1006.26
2018-05-18T00:53:02.437Z,1006.27
2018-05-18T00:54:02.451Z,1006.3
2018-05-18T00:55:02.477Z,1006.3
2018-05-18T00:56:02.494Z,1006.3
2018-05-18T00:57:02.524Z,1006.3
2018-05-18T00:58:02.530Z,1006.29
2018-05-18T00:59:02.549Z,1006.32
2018-05-18T01:00:02.576Z,1006.33
2018-05-18T01:01:02.590Z,1006.36
2018-05-18T01:02:02.606Z,1006.36
2018-05-18T01:03:02.626Z,1006.36
2018-05-18T01:04:02.648Z,1006.34
2018-05-18T01:05:02.666Z,1006.34
2018-05-18T01:06:02.689Z,1006.34
2018-05-18T01:07:02.703Z,1006.33
2018-05-18T01:08:02.728Z,1006.29
2018-05-18T01:09:02.742Z,1006.32
2018-05-18T01:10:02.767Z,1006.3
2018-05-18T01:11:02.782Z,1006.3
2018-05-18T01:12:02.800Z,1006.28
2018-05-18T01:13:02.821Z,1006.34
2018-05-18T01:14:02.843Z,1006.3
2018-05-18T01:15:02.865Z,1006.29
2018-05-18T01:16:02.879Z,1006.32
2018-05-18T01:17:02.897Z,1006.36
2018-05-18T01:18:02.920Z,1006.37
2018-05-18T01:19:02.940Z,1006.41
2018-05-18T01:20:02.958Z,1006.34
2018-05-18T01:21:02.979Z,1006.34
2018-05-18T01:22:02.995Z,1006.35
2018-05-18T01:23:03.016Z,1006.37
2018-05-18T01:24:03.033Z,1006.34
2018-05-18T01:25:03.055Z,1006.35
2018-05-18T01:26:03.069Z,1006.33
2018-05-18T01:27:03.091Z,1006.34
2018-05-18T01:28:03.109Z,1006.33
2018-05-18T01:29:03.127Z,1006.33
2018-05-18T01:30:03.146Z,1006.32
2018-05-18T01:31:03.171Z,1006.27
2018-05-18T01:32:03.192Z,1006.23
2018-05-18T01:33:03.209Z,1006.28
2018-05-18T01:34:03.224Z,1006.26
2018-05-18T01:35:03.249Z,1006.26
2018-05-18T01:36:03.266Z,1006.24
2018-05-18T01:37:03.280Z,1006.22
2018-05-18T01:38:03.305Z,1006.23
2018-05-18T01:39:03.325Z,1006.21
2018-05-18T01:40:03.343Z,1006.19
2018-05-18T01:42:03.377Z,1006.17
2018-05-18T01:43:03.398Z,1006.17
2018-05-18T01:44:03.415Z,1006.11
2018-05-18T01:45:03.439Z,1006.14
2018-05-18T01:46:03.461Z,1006.12
2018-05-18T01:47:03.477Z,1006.12
2018-05-18T01:48:03.497Z,1006.15
2018-05-18T01:49:03.510Z,1006.15
2018-05-18T01:50:03.533Z,1006.19
2018-05-18T01:51:03.553Z,1006.2
2018-05-18T01:52:03.572Z,1006.21
2018-05-18T01:53:03.587Z,1006.22
2018-05-18T01:54:03.606Z,1006.23
2018-05-18T01:55:03.632Z,1006.25
2018-05-18T01:56:03.649Z,1006.23
2018-05-18T01:57:03.669Z,1006.25
2018-05-18T01:58:03.685Z,1006.26
2018-05-18T01:59:03.705Z,1006.27
2018-05-18T02:00:03.731Z,1006.28
2018-05-18T02:01:03.745Z,1006.28
2018-05-18T02:02:03.758Z,1006.27
2018-05-18T02:03:03.781Z,1006.31
2018-05-18T02:04:03.798Z,1006.3
2018-05-18T02:05:03.818Z,1006.33
2018-05-18T02:06:03.839Z,1006.35
2018-05-18T02:07:03.853Z,1006.35
2018-05-18T02:08:03.878Z,1006.32
2018-05-18T02:09:03.896Z,1006.33
2018-05-18T02:10:03.916Z,1006.35
2018-05-18T02:11:03.938Z,1006.36
2018-05-18T02:12:03.954Z,1006.37
2018-05-18T02:13:03.973Z,1006.37
2018-05-18T02:14:03.992Z,1006.35
2018-05-18T02:15:04.011Z,1006.37
2018-05-18T02:16:04.026Z,1006.4
2018-05-18T02:17:04.043Z,1006.38
2018-05-18T02:18:04.063Z,1006.39
2018-05-18T02:19:04.088Z,1006.38
2018-05-18T02:20:04.104Z,1006.37
2018-05-18T02:21:04.124Z,1006.38
2018-05-18T02:22:04.140Z,1006.37
2018-05-18T02:23:04.164Z,1006.42
2018-05-18T02:24:04.181Z,1006.42
2018-05-18T02:25:04.201Z,1006.4
2018-05-18T02:26:04.218Z,1006.41
2018-05-18T02:27:04.241Z,1006.42
2018-05-18T02:28:04.256Z,1006.39
2018-05-18T02:29:04.273Z,1006.43
2018-05-18T02:30:04.293Z,1006.42
2018-05-18T02:31:04.311Z,1006.4
2018-05-18T02:32:04.337Z,1006.4
2018-05-18T02:33:04.349Z,1006.37
2018-05-18T02:34:04.374Z,1006.39
2018-05-18T02:35:04.390Z,1006.39
2018-05-18T02:36:04.406Z,1006.38
2018-05-18T02:37:04.426Z,1006.39
2018-05-18T02:38:04.444Z,1006.39
2018-05-18T02:39:04.470Z,1006.39
2018-05-18T02:40:04.493Z,1006.37
2018-05-18T02:41:04.502Z,1006.37
2018-05-18T02:42:04.519Z,1006.35
2018-05-18T02:43:04.548Z,1006.38
2018-05-18T02:44:04.559Z,1006.36
2018-05-18T02:45:04.582Z,1006.34
2018-05-18T02:46:04.603Z,1006.33
2018-05-18T02:47:04.618Z,1006.36
2018-05-18T02:48:04.634Z,1006.34
2018-05-18T02:49:04.659Z,1006.35
2018-05-18T02:50:04.672Z,1006.36
2018-05-18T02:51:04.695Z,1006.38
2018-05-18T02:52:04.715Z,1006.35
2018-05-18T02:53:04.732Z,1006.38
2018-05-18T02:54:04.754Z,1006.36
2018-05-18T02:55:04.772Z,1006.36
2018-05-18T02:56:04.791Z,1006.37
2018-05-18T02:57:04.811Z,1006.36
2018-05-18T02:58:04.824Z,1006.34
2018-05-18T02:59:04.848Z,1006.4
2018-05-18T03:00:04.861Z,1006.37
2018-05-18T03:01:04.880Z,1006.38
2018-05-18T03:02:04.899Z,1006.4
2018-05-18T03:03:04.918Z,1006.4
2018-05-18T03:04:04.937Z,1006.38
2018-05-18T03:05:04.963Z,1006.4
2018-05-18T03:06:04.980Z,1006.39
2018-05-18T03:07:04.999Z,1006.39
2018-05-18T03:08:05.013Z,1006.4
2018-05-18T03:09:05.037Z,1006.39
2018-05-18T03:10:05.052Z,1006.37
2018-05-18T03:11:05.073Z,1006.39
2018-05-18T03:12:05.088Z,1006.36
2018-05-18T03:13:05.107Z,1006.38
2018-05-18T03:14:05.126Z,1006.33
2018-05-18T03:15:05.144Z,1006.35
2018-05-18T03:16:05.163Z,1006.34
2018-05-18T03:17:05.187Z,1006.37
2018-05-18T03:18:05.202Z,1006.37
2018-05-18T03:19:05.223Z,1006.4
2018-05-18T03:20:05.240Z,1006.43
2018-05-18T03:21:05.359Z,1006.43
2018-05-18T03:22:05.284Z,1006.45
2018-05-18T03:23:05.300Z,1006.44
2018-05-18T03:24:05.313Z,1006.44
2018-05-18T03:25:05.340Z,1006.49
2018-05-18T03:26:05.351Z,1006.46
2018-05-18T03:27:05.371Z,1006.43
2018-05-18T03:28:05.395Z,1006.45
2018-05-18T03:29:05.410Z,1006.45
2018-05-18T03:30:05.430Z,1006.43
2018-05-18T03:31:05.451Z,1006.43
2018-05-18T03:32:05.472Z,1006.48
2018-05-18T03:33:05.489Z,1006.43
2018-05-18T03:34:05.502Z,1006.5
2018-05-18T03:35:05.522Z,1006.47
2018-05-18T03:36:05.590Z,1006.51
2018-05-18T03:37:05.564Z,1006.53
2018-05-18T03:38:05.584Z,1006.52
2018-05-18T03:39:05.598Z,1006.52
2018-05-18T03:40:05.621Z,1006.51
2018-05-18T03:41:05.639Z,1006.53
2018-05-18T03:42:05.655Z,1006.56
2018-05-18T03:44:05.695Z,1006.54
2018-05-18T03:45:05.709Z,1006.52
2018-05-18T03:46:05.733Z,1006.5
2018-05-18T03:47:05.749Z,1006.51
2018-05-18T03:48:05.767Z,1006.53
2018-05-18T03:49:05.786Z,1006.55
2018-05-18T03:50:05.808Z,1006.53
2018-05-18T03:51:05.823Z,1006.54
2018-05-18T03:52:05.845Z,1006.52
2018-05-18T03:53:05.868Z,1006.55
2018-05-18T03:54:05.899Z,1006.55
2018-05-18T03:55:05.905Z,1006.54
2018-05-18T03:56:05.918Z,1006.54
2018-05-18T03:57:05.937Z,1006.54
2018-05-18T03:58:05.960Z,1006.56
2018-05-18T03:59:05.977Z,1006.55
2018-05-18T04:00:05.999Z,1006.56
2018-05-18T04:01:06.017Z,1006.56
2018-05-18T04:02:06.235Z,1006.53
2018-05-18T04:03:06.050Z,1006.55
2018-05-18T04:04:06.070Z,1006.59
2018-05-18T04:05:06.093Z,1006.59
2018-05-18T04:06:06.116Z,1006.59
2018-05-18T04:07:06.125Z,1006.65
2018-05-18T04:08:06.144Z,1006.65
2018-05-18T04:09:06.168Z,1006.64
2018-05-18T04:10:06.189Z,1006.67
2018-05-18T04:11:06.211Z,1006.64
2018-05-18T04:12:06.221Z,1006.66
2018-05-18T04:13:06.238Z,1006.68
2018-05-18T04:14:06.259Z,1006.67
2018-05-18T04:15:06.281Z,1006.7
2018-05-18T04:16:06.300Z,1006.75
2018-05-18T04:17:06.316Z,1006.71
2018-05-18T04:18:06.338Z,1006.72
2018-05-18T04:19:06.353Z,1006.74
2018-05-18T04:20:06.371Z,1006.78
2018-05-18T04:21:06.388Z,1006.76
2018-05-18T04:22:06.495Z,1006.78
2018-05-18T04:23:06.431Z,1006.73
2018-05-18T04:24:06.450Z,1006.75
2018-05-18T04:25:06.463Z,1006.74
2018-05-18T04:26:06.488Z,1006.73
2018-05-18T04:27:06.513Z,1006.74
2018-05-18T04:28:06.521Z,1006.74
2018-05-18T04:29:06.543Z,1006.71
2018-05-18T04:30:06.615Z,1006.74
2018-05-18T04:31:06.582Z,1006.75
2018-05-18T04:32:06.598Z,1006.74
2018-05-18T04:33:06.614Z,1006.73
2018-05-18T04:34:06.634Z,1006.75
2018-05-18T04:35:06.653Z,1006.79
2018-05-18T04:36:06.673Z,1006.83
2018-05-18T04:37:06.698Z,1006.84
2018-05-18T04:38:06.709Z,1006.85
2018-05-18T04:39:06.727Z,1006.88
2018-05-18T04:40:06.750Z,1006.88
2018-05-18T04:41:06.770Z,1006.9
2018-05-18T04:42:06.789Z,1006.87
2018-05-18T04:43:06.852Z,1006.92
2018-05-18T04:44:06.827Z,1006.93
2018-05-18T04:45:06.841Z,1006.92
2018-05-18T04:46:06.865Z,1006.95
2018-05-18T04:47:06.883Z,1006.93
2018-05-18T04:48:06.900Z,1006.94
2018-05-18T04:49:06.916Z,1006.91
2018-05-18T04:50:06.940Z,1006.95
2018-05-18T04:51:06.959Z,1006.94
2018-05-18T04:52:06.977Z,1006.93
2018-05-18T04:53:06.996Z,1006.94
2018-05-18T04:54:07.014Z,1006.91
2018-05-18T04:55:07.035Z,1006.95
2018-05-18T04:56:07.050Z,1006.98
2018-05-18T04:57:07.070Z,1006.98
2018-05-18T04:58:07.087Z,1006.98
2018-05-18T04:59:07.109Z,1006.99
2018-05-18T05:00:07.128Z,1007.02
2018-05-18T05:01:07.150Z,1007.01
2018-05-18T05:02:07.167Z,1007.04
2018-05-18T05:03:07.185Z,1007.03
2018-05-18T05:04:07.204Z,1007.05
2018-05-18T05:05:07.217Z,1007.05
2018-05-18T05:06:07.235Z,1007.06
2018-05-18T05:07:07.260Z,1007.07
2018-05-18T05:08:07.273Z,1007.1
2018-05-18T05:09:07.297Z,1007.07
2018-05-18T05:10:07.311Z,1007.07
2018-05-18T05:11:07.332Z,1007.06
2018-05-18T05:12:07.348Z,1007.08
2018-05-18T05:13:07.373Z,1007.11
2018-05-18T05:14:07.404Z,1007.08
2018-05-18T05:15:07.412Z,1007.08
2018-05-18T05:16:07.427Z,1007.09
2018-05-18T05:17:07.444Z,1007.12
2018-05-18T05:18:07.462Z,1007.13
2018-05-18T05:19:07.485Z,1007.09
2018-05-18T05:20:07.504Z,1007.11
2018-05-18T05:21:07.524Z,1007.09
2018-05-18T05:22:07.541Z,1007.14
2018-05-18T05:23:07.561Z,1007.08
2018-05-18T05:24:07.579Z,1007.08
2018-05-18T05:25:07.594Z,1007.11
2018-05-18T05:26:07.618Z,1007.14
2018-05-18T05:27:07.637Z,1007.14
2018-05-18T05:28:07.652Z,1007.14
2018-05-18T05:29:07.675Z,1007.13
2018-05-18T05:30:07.702Z,1007.14
2018-05-18T05:31:07.708Z,1007.16
2018-05-18T05:32:07.767Z,1007.13
2018-05-18T05:33:07.746Z,1007.16
2018-05-18T05:34:07.764Z,1007.18
2018-05-18T05:35:07.788Z,1007.17
2018-05-18T05:36:07.807Z,1007.2
2018-05-18T05:37:07.824Z,1007.21
2018-05-18T05:38:07.846Z,1007.18
2018-05-18T05:39:07.861Z,1007.24
2018-05-18T05:40:07.879Z,1007.18
2018-05-18T05:41:07.897Z,1007.23
2018-05-18T05:42:07.917Z,1007.23
2018-05-18T05:43:07.941Z,1007.27
2018-05-18T05:44:07.955Z,1007.23
2018-05-18T05:45:07.980Z,1007.28
2018-05-18T05:46:07.999Z,1007.24
2018-05-18T05:47:08.012Z,1007.26
2018-05-18T05:48:08.036Z,1007.29
2018-05-18T05:49:08.050Z,1007.28
2018-05-18T05:50:08.077Z,1007.31
2018-05-18T05:51:08.095Z,1007.27
2018-05-18T05:52:08.190Z,1007.26
2018-05-18T05:53:08.130Z,1007.28
2018-05-18T05:54:08.152Z,1007.25
2018-05-18T05:55:08.170Z,1007.25
2018-05-18T05:56:08.187Z,1007.25
2018-05-18T05:57:08.267Z,1007.24
2018-05-18T05:58:08.221Z,1007.25
2018-05-18T05:59:08.240Z,1007.27
2018-05-18T06:00:08.264Z,1007.28
2018-05-18T06:01:08.286Z,1007.26
2018-05-18T06:02:08.297Z,1007.29
2018-05-18T06:03:08.321Z,1007.32
2018-05-18T06:04:08.372Z,1007.34
2018-05-18T06:05:08.354Z,1007.35
2018-05-18T06:06:08.378Z,1007.39
2018-05-18T06:07:08.399Z,1007.36
2018-05-18T06:08:08.412Z,1007.4
2018-05-18T06:09:08.435Z,1007.4
2018-05-18T06:10:08.454Z,1007.4
2018-05-18T06:11:08.467Z,1007.43
2018-05-18T06:12:08.568Z,1007.43
2018-05-18T06:13:08.513Z,1007.44
2018-05-18T06:14:08.532Z,1007.45
2018-05-18T06:15:08.545Z,1007.48
2018-05-18T06:16:08.569Z,1007.45
2018-05-18T06:17:08.584Z,1007.47
2018-05-18T06:18:08.608Z,1007.46
2018-05-18T06:19:08.620Z,1007.44
2018-05-18T06:20:08.646Z,1007.48
2018-05-18T06:21:08.664Z,1007.49
2018-05-18T06:22:08.687Z,1007.46
2018-05-18T06:23:08.704Z,1007.47
2018-05-18T06:24:08.722Z,1007.49
2018-05-18T06:25:08.792Z,1007.47
2018-05-18T06:26:08.761Z,1007.54
2018-05-18T06:27:08.781Z,1007.55
2018-05-18T06:28:08.799Z,1007.55
2018-05-18T06:29:08.817Z,1007.55
2018-05-18T06:30:08.840Z,1007.54
2018-05-18T06:31:08.857Z,1007.57
2018-05-18T06:32:08.871Z,1007.54
2018-05-18T06:33:08.892Z,1007.59
2018-05-18T06:34:08.916Z,1007.58
2018-05-18T06:35:09.029Z,1007.58
2018-05-18T06:36:08.949Z,1007.57
2018-05-18T06:37:08.972Z,1007.58
2018-05-18T06:38:08.990Z,1007.63
2018-05-18T06:39:09.007Z,1007.61
2018-05-18T06:40:09.027Z,1007.6
2018-05-18T06:41:09.117Z,1007.58
2018-05-18T06:42:09.067Z,1007.58
2018-05-18T06:43:09.085Z,1007.63
2018-05-18T06:44:09.099Z,1007.62
2018-05-18T06:45:09.125Z,1007.63
2018-05-18T06:46:09.138Z,1007.62
2018-05-18T06:47:09.163Z,1007.69
2018-05-18T06:48:09.176Z,1007.69
2018-05-18T06:49:09.196Z,1007.66
2018-05-18T06:50:09.219Z,1007.7
2018-05-18T06:51:09.233Z,1007.7
2018-05-18T06:52:09.253Z,1007.74
2018-05-18T06:53:09.276Z,1007.74
2018-05-18T06:54:09.294Z,1007.79
2018-05-18T06:55:09.315Z,1007.75
2018-05-18T06:56:09.329Z,1007.81
2018-05-18T06:57:09.352Z,1007.82
2018-05-18T06:58:09.370Z,1007.85
2018-05-18T06:59:09.393Z,1007.83
2018-05-18T07:00:09.412Z,1007.85
2018-05-18T07:01:09.430Z,1007.85
2018-05-18T07:02:09.450Z,1007.85
2018-05-18T07:03:09.468Z,1007.9
2018-05-18T07:04:09.533Z,1007.91
2018-05-18T07:05:09.504Z,1007.87
2018-05-18T07:06:09.524Z,1007.89
2018-05-18T07:07:09.542Z,1007.91
2018-05-18T07:08:09.562Z,1007.89
2018-05-18T07:09:09.585Z,1007.89
2018-05-18T07:10:09.604Z,1007.91
2018-05-18T07:11:09.621Z,1007.87
2018-05-18T07:12:09.639Z,1007.85
2018-05-18T07:13:09.664Z,1007.91
2018-05-18T07:14:09.685Z,1007.93
2018-05-18T07:15:09.698Z,1007.93
2018-05-18T07:16:09.718Z,1007.9
2018-05-18T07:17:09.742Z,1007.89
2018-05-18T07:18:09.757Z,1007.9
2018-05-18T07:19:09.787Z,1007.97
2018-05-18T07:20:09.802Z,1007.97
2018-05-18T07:21:09.819Z,1007.97
2018-05-18T07:22:09.837Z,1007.95
2018-05-18T07:23:09.859Z,1007.98
2018-05-18T07:24:09.878Z,1007.98
2018-05-18T07:25:09.897Z,1007.95
2018-05-18T07:26:09.912Z,1007.98
2018-05-18T07:27:09.937Z,1007.97
2018-05-18T07:28:09.956Z,1008
2018-05-18T07:29:09.974Z,1008
2018-05-18T07:30:10.043Z,1007.99
2018-05-18T07:31:10.010Z,1008
2018-05-18T07:32:10.043Z,1008.02
2018-05-18T07:33:10.059Z,1008.02
2018-05-18T07:34:10.168Z,1007.98
2018-05-18T07:35:10.088Z,1008.03
2018-05-18T07:36:10.205Z,1008.02
2018-05-18T07:37:10.133Z,1008.01
2018-05-18T07:38:10.152Z,1008.02
2018-05-18T07:39:10.172Z,1008.04
2018-05-18T07:40:10.187Z,1008.07
2018-05-18T07:41:10.219Z,1008.05
2018-05-18T07:42:10.227Z,1008.03
2018-05-18T07:43:10.247Z,1008.07
2018-05-18T07:44:10.265Z,1008.1
2018-05-18T07:45:10.294Z,1008.11
2018-05-18T07:46:10.313Z,1008.13
2018-05-18T07:47:10.329Z,1008.09
2018-05-18T07:48:10.344Z,1008.07
2018-05-18T07:49:10.368Z,1008.1
2018-05-18T07:50:10.399Z,1008.09
2018-05-18T07:51:10.403Z,1008.08
2018-05-18T07:52:10.432Z,1008.11
2018-05-18T07:53:10.448Z,1008.07
2018-05-18T07:54:10.469Z,1008.1
2018-05-18T07:55:10.489Z,1008.04
2018-05-18T07:56:10.502Z,1008.08
2018-05-18T07:57:10.522Z,1008.1
2018-05-18T07:58:10.549Z,1008.12
2018-05-18T07:59:10.618Z,1008.12
2018-05-18T08:00:10.590Z,1008.12
2018-05-18T08:01:10.601Z,1008.18
2018-05-18T08:02:10.628Z,1008.14
2018-05-18T08:03:10.643Z,1008.16
2018-05-18T08:04:10.666Z,1008.16
2018-05-18T08:05:10.687Z,1008.16
2018-05-18T08:06:10.700Z,1008.17
2018-05-18T08:07:10.719Z,1008.15
2018-05-18T08:08:10.744Z,1008.15
2018-05-18T08:09:10.766Z,1008.16
2018-05-18T08:10:10.783Z,1008.17
2018-05-18T08:11:10.808Z,1008.22
2018-05-18T08:12:10.827Z,1008.25
2018-05-18T08:13:10.841Z,1008.22
2018-05-18T08:14:10.865Z,1008.25
2018-05-18T08:15:10.970Z,1008.28
2018-05-18T08:16:10.908Z,1008.26
2018-05-18T08:17:10.927Z,1008.23
2018-05-18T08:18:10.944Z,1008.23
2018-05-18T08:19:10.963Z,1008.27
2018-05-18T08:20:10.980Z,1008.25
2018-05-18T08:21:11.004Z,1008.22
2018-05-18T08:22:11.031Z,1008.22
2018-05-18T08:23:11.047Z,1008.23
2018-05-18T08:24:11.060Z,1008.23
2018-05-18T08:25:11.095Z,1008.22
2018-05-18T08:26:11.105Z,1008.26
2018-05-18T08:27:11.161Z,1008.26
2018-05-18T08:28:11.151Z,1008.29
2018-05-18T08:29:11.178Z,1008.28
2018-05-18T08:30:11.182Z,1008.3
2018-05-18T08:31:11.205Z,1008.35
2018-05-18T08:32:11.227Z,1008.32
2018-05-18T08:33:11.240Z,1008.36
2018-05-18T08:34:11.270Z,1008.36
2018-05-18T08:35:11.286Z,1008.38
2018-05-18T08:36:11.308Z,1008.36
2018-05-18T08:37:11.323Z,1008.35
2018-05-18T08:38:11.348Z,1008.36
2018-05-18T08:39:11.468Z,1008.35
2018-05-18T08:40:11.386Z,1008.37
2018-05-18T08:41:11.402Z,1008.35
2018-05-18T08:42:11.425Z,1008.37
2018-05-18T08:43:11.444Z,1008.4
2018-05-18T08:44:11.461Z,1008.35
2018-05-18T08:45:11.490Z,1008.38
2018-05-18T08:46:11.507Z,1008.39
2018-05-18T08:47:11.542Z,1008.39
2018-05-18T08:48:11.546Z,1008.39
2018-05-18T08:49:11.568Z,1008.41
2018-05-18T08:50:11.583Z,1008.42
2018-05-18T08:51:11.611Z,1008.39
2018-05-18T08:52:11.628Z,1008.42
2018-05-18T08:53:11.648Z,1008.47
2018-05-18T08:54:11.669Z,1008.45
2018-05-18T08:55:11.693Z,1008.39
2018-05-18T08:56:11.709Z,1008.38
2018-05-18T08:57:11.734Z,1008.42
2018-05-18T08:58:11.756Z,1008.44
2018-05-18T08:59:11.770Z,1008.46
2018-05-18T09:00:11.794Z,1008.45
2018-05-18T09:01:11.816Z,1008.48
2018-05-18T09:02:11.827Z,1008.47
2018-05-18T09:03:11.850Z,1008.46
2018-05-18T09:04:11.876Z,1008.48
2018-05-18T09:05:11.895Z,1008.52
2018-05-18T09:06:11.914Z,1008.56
2018-05-18T09:07:11.942Z,1008.51
2018-05-18T09:08:11.954Z,1008.54
2018-05-18T09:09:11.972Z,1008.52
2018-05-18T09:10:11.989Z,1008.51
2018-05-18T09:11:12.016Z,1008.47
2018-05-18T09:12:12.031Z,1008.5
2018-05-18T09:13:12.050Z,1008.5
2018-05-18T09:14:12.077Z,1008.48
2018-05-18T09:15:12.092Z,1008.48
2018-05-18T09:16:12.115Z,1008.49
2018-05-18T09:17:12.132Z,1008.49
2018-05-18T09:18:12.183Z,1008.57
2018-05-18T09:19:12.184Z,1008.54
2018-05-18T09:20:12.201Z,1008.55
2018-05-18T09:21:12.220Z,1008.52
2018-05-18T09:22:12.239Z,1008.54
2018-05-18T09:23:12.258Z,1008.55
2018-05-18T09:24:12.280Z,1008.59
2018-05-18T09:25:12.299Z,1008.53
2018-05-18T09:26:12.320Z,1008.57
2018-05-18T09:27:12.345Z,1008.54
2018-05-18T09:28:12.359Z,1008.59
2018-05-18T09:29:12.388Z,1008.57
2018-05-18T09:30:12.409Z,1008.59
2018-05-18T09:31:12.427Z,1008.59
2018-05-18T09:32:12.444Z,1008.54
2018-05-18T09:33:12.473Z,1008.56
2018-05-18T09:34:12.536Z,1008.55
2018-05-18T09:35:12.510Z,1008.54
2018-05-18T09:36:12.530Z,1008.52
2018-05-18T09:37:12.550Z,1008.55
2018-05-18T09:38:12.568Z,1008.56
2018-05-18T09:39:12.590Z,1008.56
2018-05-18T09:40:12.618Z,1008.56
2018-05-18T09:41:12.627Z,1008.54
2018-05-18T09:42:12.649Z,1008.57
2018-05-18T09:43:12.675Z,1008.57
2018-05-18T09:44:12.690Z,1008.57
2018-05-18T09:45:12.740Z,1008.59
2018-05-18T09:46:12.731Z,1008.57
2018-05-18T09:47:12.750Z,1008.59
2018-05-18T09:48:12.770Z,1008.62
2018-05-18T09:49:12.794Z,1008.57
2018-05-18T09:50:12.819Z,1008.59
2018-05-18T09:51:12.834Z,1008.61
2018-05-18T09:52:12.859Z,1008.62
2018-05-18T09:53:13.759Z,1008.58
2018-05-18T09:54:12.959Z,1008.63
2018-05-18T09:55:13.207Z,1008.65
2018-05-18T09:56:12.946Z,1008.63
2018-05-18T09:57:12.966Z,1008.65
2018-05-18T09:58:12.984Z,1008.66
2018-05-18T09:59:13.010Z,1008.67
2018-05-18T10:00:13.029Z,1008.65
2018-05-18T10:01:13.041Z,1008.69
2018-05-18T10:02:13.067Z,1008.66
2018-05-18T10:03:13.089Z,1008.66
2018-05-18T10:04:13.112Z,1008.68
2018-05-18T10:05:13.133Z,1008.64
2018-05-18T10:06:13.152Z,1008.67
2018-05-18T10:07:13.181Z,1008.67
2018-05-18T10:08:13.191Z,1008.65
2018-05-18T10:09:13.209Z,1008.68
2018-05-18T10:10:13.231Z,1008.68
2018-05-18T10:11:13.257Z,1008.68
2018-05-18T10:12:13.326Z,1008.67
2018-05-18T10:13:13.301Z,1008.64
2018-05-18T10:14:13.323Z,1008.67
2018-05-18T10:15:13.341Z,1008.67
2018-05-18T10:16:13.380Z,1008.64
2018-05-18T10:17:13.380Z,1008.69
2018-05-18T10:18:13.402Z,1008.68
2018-05-18T10:19:13.427Z,1008.65
2018-05-18T10:20:13.444Z,1008.66
2018-05-18T10:21:13.462Z,1008.64
2018-05-18T10:22:13.487Z,1008.64
2018-05-18T10:23:13.509Z,1008.67
2018-05-18T10:24:13.535Z,1008.65
2018-05-18T10:25:13.552Z,1008.64
2018-05-18T10:26:13.569Z,1008.65
2018-05-18T10:27:13.592Z,1008.63
2018-05-18T10:28:13.637Z,1008.68
2018-05-18T10:29:13.642Z,1008.71
2018-05-18T10:30:13.661Z,1008.69
2018-05-18T10:31:13.687Z,1008.68
2018-05-18T10:32:13.698Z,1008.64
2018-05-18T10:33:13.726Z,1008.67
2018-05-18T10:34:13.744Z,1008.63
2018-05-18T10:35:13.769Z,1008.7
2018-05-18T10:36:13.790Z,1008.63
2018-05-18T10:37:13.812Z,1008.71
2018-05-18T10:38:13.828Z,1008.74
2018-05-18T10:39:13.851Z,1008.67
2018-05-18T10:40:13.880Z,1008.69
2018-05-18T10:41:13.895Z,1008.67
2018-05-18T10:42:13.918Z,1008.67
2018-05-18T10:43:13.943Z,1008.64
2018-05-18T10:44:13.959Z,1008.65
2018-05-18T10:45:13.991Z,1008.63
2018-05-18T10:46:14.106Z,1008.65
2018-05-18T10:47:14.025Z,1008.67
2018-05-18T10:48:14.045Z,1008.7
2018-05-18T10:49:14.072Z,1008.7
2018-05-18T10:50:14.091Z,1008.68
2018-05-18T10:51:14.111Z,1008.68
2018-05-18T10:52:14.133Z,1008.67
2018-05-18T10:53:14.157Z,1008.68
2018-05-18T10:54:14.176Z,1008.69
2018-05-18T10:55:14.203Z,1008.7
2018-05-18T10:56:14.224Z,1008.74
2018-05-18T10:57:14.243Z,1008.68
2018-05-18T10:58:14.267Z,1008.71
2018-05-18T10:59:14.282Z,1008.73
2018-05-18T11:00:14.319Z,1008.73
2018-05-18T11:01:14.330Z,1008.73
2018-05-18T11:02:14.353Z,1008.71
2018-05-18T11:03:14.375Z,1008.69
2018-05-18T11:04:14.398Z,1008.73
2018-05-18T11:05:14.496Z,1008.73
2018-05-18T11:06:14.435Z,1008.67
2018-05-18T11:07:14.474Z,1008.63
2018-05-18T11:08:14.487Z,1008.69
2018-05-18T11:09:14.502Z,1008.68
2018-05-18T11:10:14.533Z,1008.72
2018-05-18T11:11:14.571Z,1008.69
2018-05-18T11:12:14.575Z,1008.7
2018-05-18T11:13:14.597Z,1008.72
2018-05-18T11:14:14.738Z,1008.71
2018-05-18T11:15:14.634Z,1008.66
2018-05-18T11:16:14.663Z,1008.68
2018-05-18T11:17:14.682Z,1008.7
2018-05-18T11:18:14.702Z,1008.67
2018-05-18T11:19:14.730Z,1008.67
2018-05-18T11:20:14.747Z,1008.66
2018-05-18T11:21:14.775Z,1008.67
2018-05-18T11:22:14.792Z,1008.66
2018-05-18T11:23:14.812Z,1008.66
2018-05-18T11:24:14.838Z,1008.67
2018-05-18T11:25:14.865Z,1008.69
2018-05-18T11:26:14.949Z,1008.69
2018-05-18T11:27:14.919Z,1008.67
2018-05-18T11:28:14.930Z,1008.69
2018-05-18T11:29:14.941Z,1008.68
2018-05-18T11:30:14.970Z,1008.68
2018-05-18T11:31:14.988Z,1008.69
2018-05-18T11:32:15.015Z,1008.68
2018-05-18T11:33:15.055Z,1008.73
2018-05-18T11:34:15.059Z,1008.68
2018-05-18T11:35:15.074Z,1008.69
2018-05-18T11:36:15.102Z,1008.66
2018-05-18T11:37:15.122Z,1008.69
2018-05-18T11:38:15.148Z,1008.64
2018-05-18T11:39:15.248Z,1008.68
2018-05-18T11:40:15.190Z,1008.64
2018-05-18T11:41:15.210Z,1008.62
2018-05-18T11:42:15.232Z,1008.63
2018-05-18T11:43:15.257Z,1008.63
2018-05-18T11:44:15.280Z,1008.62
2018-05-18T11:45:15.303Z,1008.6
2018-05-18T11:46:15.320Z,1008.62
2018-05-18T11:47:15.389Z,1008.57
2018-05-18T11:48:15.365Z,1008.58
2018-05-18T11:49:15.383Z,1008.56
2018-05-18T11:50:15.413Z,1008.59
2018-05-18T11:51:15.427Z,1008.56
2018-05-18T11:52:15.506Z,1008.58
2018-05-18T11:53:15.481Z,1008.55
2018-05-18T11:54:15.503Z,1008.52
2018-05-18T11:55:15.522Z,1008.54
2018-05-18T11:56:15.548Z,1008.51
2018-05-18T11:57:15.561Z,1008.51
2018-05-18T11:58:15.593Z,1008.53
2018-05-18T11:59:15.614Z,1008.51
2018-05-18T12:00:15.629Z,1008.49
2018-05-18T12:01:15.655Z,1008.49
2018-05-18T12:02:15.680Z,1008.5
2018-05-18T12:03:15.700Z,1008.47
2018-05-18T12:04:15.728Z,1008.51
2018-05-18T12:05:15.749Z,1008.45
2018-05-18T12:06:15.763Z,1008.46
2018-05-18T12:07:15.795Z,1008.48
2018-05-18T12:08:15.880Z,1008.51
2018-05-18T12:09:15.834Z,1008.47